createdAt,value
2023-02-14T00:00:29.250Z,16.60
2023-02-14T00:02:57.023Z,21.77
2023-02-14T00:05:23.572Z,19.60
2023-02-14T00:07:49.980Z,19.48
2023-02-14T00:10:17.042Z,17.98
2023-02-14T00:12:43.497Z,20.73
2023-02-14T00:15:22.242Z,21.27
2023-02-14T00:17:54.511Z,19.27
2023-02-14T00:20:24.041Z,19.30
2023-02-14T00:22:50.530Z,18.55
2023-02-14T00:25:17.174Z,20.60
2023-02-14T00:27:43.785Z,20.83
2023-02-14T00:30:11.721Z,18.40
2023-02-14T00:32:39.608Z,20.63
2023-02-14T00:35:07.669Z,20.58
2023-02-14T00:37:34.949Z,20.65
2023-02-14T00:40:01.428Z,22.35
2023-02-14T00:42:27.858Z,18.05
2023-02-14T00:44:54.303Z,22.83
2023-02-14T00:47:20.752Z,22.10
2023-02-14T00:49:47.134Z,21.13
2023-02-14T00:52:13.804Z,22.65
2023-02-14T00:54:40.195Z,18.17
2023-02-14T00:57:06.583Z,22.65
2023-02-14T00:59:33.067Z,20.42
2023-02-14T01:01:59.421Z,22.05
2023-02-14T01:04:25.793Z,20.67
2023-02-14T01:06:52.585Z,21.58
2023-02-14T01:09:19.640Z,20.50
2023-02-14T01:11:46.093Z,20.80
2023-02-14T01:14:14.501Z,20.55
2023-02-14T01:16:42.392Z,25.20
2023-02-14T01:19:09.212Z,22.73
2023-02-14T01:21:35.656Z,19.67
2023-02-14T01:24:05.188Z,22.98
2023-02-14T01:26:31.906Z,23.17
2023-02-14T01:29:01.242Z,22.00
2023-02-14T01:31:32.095Z,23.02
2023-02-14T01:33:59.511Z,24.05
2023-02-14T01:36:46.593Z,23.80
2023-02-14T01:39:14.704Z,25.13
2023-02-14T01:41:43.948Z,23.05
2023-02-14T01:44:19.637Z,23.88
2023-02-14T01:46:47.386Z,25.10
2023-02-14T01:49:36.247Z,24.23
2023-02-14T01:52:15.385Z,28.30
2023-02-14T01:54:48.865Z,23.65
2023-02-14T01:57:20.841Z,23.55
2023-02-14T01:59:53.083Z,16.02
2023-02-14T02:02:23.516Z,25.73
2023-02-14T02:04:54.115Z,24.10
2023-02-14T02:07:26.005Z,23.67
2023-02-14T02:09:56.418Z,21.98
2023-02-14T02:12:24.021Z,22.77
2023-02-14T02:14:54.073Z,23.15
2023-02-14T02:17:26.051Z,25.83
2023-02-14T02:20:20.268Z,16.73
2023-02-14T02:23:04.993Z,24.85
2023-02-14T02:25:56.265Z,23.33
2023-02-14T02:28:41.026Z,25.05
2023-02-14T02:31:42.066Z,25.08
2023-02-14T02:34:41.353Z,26.73
2023-02-14T02:37:18.905Z,22.83
2023-02-14T02:40:09.053Z,23.42
2023-02-14T02:43:19.818Z,24.38
2023-02-14T02:46:13.776Z,23.33
2023-02-14T02:48:52.172Z,27.83
2023-02-14T02:51:58.164Z,26.52
2023-02-14T02:54:51.490Z,26.33
2023-02-14T02:57:25.542Z,23.30
2023-02-14T02:59:55.624Z,25.30
2023-02-14T03:02:31.075Z,25.90
2023-02-14T03:05:05.290Z,29.45
2023-02-14T03:07:35.131Z,26.83
2023-02-14T03:10:12.540Z,27.67
2023-02-14T03:13:09.086Z,27.15
2023-02-14T03:16:02.932Z,25.75
2023-02-14T03:19:26.704Z,29.30
2023-02-14T03:22:13.541Z,26.15
2023-02-14T03:24:46.478Z,32.88
2023-02-14T03:30:08.375Z,24.40
2023-02-14T03:32:44.994Z,26.52
2023-02-14T03:35:44.787Z,25.08
2023-02-14T03:38:18.315Z,26.15
2023-02-14T03:40:49.328Z,24.30
2023-02-14T03:43:32.913Z,29.08
2023-02-14T03:46:17.137Z,25.92
2023-02-14T03:48:46.091Z,25.23
2023-02-14T03:51:16.300Z,26.10
2023-02-14T03:53:49.772Z,26.42
2023-02-14T03:56:41.454Z,27.08
2023-02-14T03:59:14.352Z,25.17
2023-02-14T04:02:01.317Z,24.73
2023-02-14T04:04:32.884Z,27.52
2023-02-14T04:06:59.401Z,21.88
2023-02-14T04:09:25.799Z,24.27
2023-02-14T04:11:52.310Z,25.88
2023-02-14T04:14:18.750Z,24.30
2023-02-14T04:17:03.498Z,26.83
2023-02-14T04:19:29.885Z,25.95
2023-02-14T04:21:56.290Z,26.50
2023-02-14T04:24:22.736Z,25.98
2023-02-14T04:27:09.712Z,24.60
2023-02-14T04:29:44.463Z,25.10
2023-02-14T04:32:14.024Z,26.15
2023-02-14T04:34:40.562Z,24.33
2023-02-14T04:37:07.676Z,27.20
2023-02-14T04:39:34.620Z,26.45
2023-02-14T04:42:01.546Z,23.73
2023-02-14T04:44:28.169Z,24.35
2023-02-14T04:46:54.748Z,24.55
2023-02-14T04:49:21.212Z,23.25
2023-02-14T04:51:48.104Z,27.45
2023-02-14T04:54:14.651Z,24.45
2023-02-14T04:56:41.124Z,23.52
2023-02-14T04:59:08.910Z,25.15
2023-02-14T05:01:35.574Z,23.88
2023-02-14T05:04:02.225Z,22.25
2023-02-14T05:06:28.945Z,28.02
2023-02-14T05:08:56.625Z,22.25
2023-02-14T05:11:23.072Z,25.50
2023-02-14T05:13:49.586Z,25.10
2023-02-14T05:16:16.405Z,22.15
2023-02-14T05:18:42.789Z,32.35
2023-02-14T05:21:09.233Z,25.77
2023-02-14T05:23:35.621Z,25.88
2023-02-14T05:26:01.985Z,24.08
2023-02-14T05:28:28.359Z,26.08
2023-02-14T05:30:56.784Z,24.38
2023-02-14T05:33:25.408Z,23.52
2023-02-14T05:35:51.795Z,26.35
2023-02-14T05:38:18.583Z,21.60
2023-02-14T05:40:45.338Z,23.90
2023-02-14T05:43:12.021Z,23.80
2023-02-14T05:45:38.659Z,24.23
2023-02-14T05:48:06.063Z,22.90
2023-02-14T05:50:32.511Z,23.52
2023-02-14T05:52:58.925Z,22.60
2023-02-14T05:55:26.130Z,24.45
2023-02-14T05:57:52.556Z,24.45
2023-02-14T06:00:19.645Z,23.90
2023-02-14T06:02:46.017Z,24.33
2023-02-14T06:05:12.409Z,21.90
2023-02-14T06:07:38.905Z,24.02
2023-02-14T06:10:05.880Z,26.45
2023-02-14T06:12:32.259Z,24.25
2023-02-14T06:14:58.672Z,24.45
2023-02-14T06:17:25.011Z,23.23
2023-02-14T06:19:51.411Z,22.92
2023-02-14T06:22:17.836Z,26.05
2023-02-14T06:24:44.227Z,27.60
2023-02-14T06:27:10.583Z,25.35
2023-02-14T06:29:36.979Z,25.52
2023-02-14T06:32:06.720Z,28.27
2023-02-14T06:34:34.247Z,32.03
2023-02-14T06:37:00.650Z,33.80
2023-02-14T06:39:27.096Z,30.48
2023-02-14T06:41:53.578Z,28.73
2023-02-14T06:44:20.028Z,34.35
2023-02-14T06:46:46.405Z,37.47
2023-02-14T06:49:12.944Z,41.63
2023-02-14T06:51:39.395Z,28.63
2023-02-14T06:54:05.857Z,34.15
2023-02-14T06:56:32.320Z,39.65
2023-02-14T06:58:58.742Z,33.13
2023-02-14T07:01:25.100Z,32.00
2023-02-14T07:03:51.480Z,32.20
2023-02-14T07:06:17.843Z,28.45
2023-02-14T07:08:44.226Z,33.85
2023-02-14T07:11:10.580Z,29.85
2023-02-14T07:13:37.169Z,36.80
2023-02-14T07:16:03.780Z,29.98
2023-02-14T07:18:30.210Z,32.03
2023-02-14T07:20:56.786Z,30.25
2023-02-14T07:23:23.291Z,36.28
2023-02-14T07:25:49.740Z,30.60
2023-02-14T07:28:16.096Z,31.23
2023-02-14T07:30:42.614Z,28.83
2023-02-14T07:33:09.134Z,33.33
2023-02-14T07:35:35.527Z,29.02
2023-02-14T07:38:01.914Z,34.10
2023-02-14T07:40:29.772Z,30.15
2023-02-14T07:42:57.695Z,33.10
2023-02-14T07:45:25.184Z,30.20
2023-02-14T07:47:53.647Z,27.05
2023-02-14T07:50:21.600Z,30.38
2023-02-14T07:52:48.590Z,34.70
2023-02-14T07:55:16.176Z,30.33
2023-02-14T07:57:42.595Z,30.60
2023-02-14T08:00:09.768Z,27.00
2023-02-14T08:02:38.841Z,33.10
2023-02-14T08:05:05.657Z,33.67
2023-02-14T08:07:32.150Z,28.27
2023-02-14T08:09:58.523Z,28.92
2023-02-14T08:12:43.337Z,29.27
2023-02-14T08:15:28.314Z,32.65
2023-02-14T08:17:56.697Z,30.83
2023-02-14T08:20:23.166Z,29.35
2023-02-14T08:22:49.725Z,27.23
2023-02-14T08:25:16.150Z,26.02
2023-02-14T08:27:42.544Z,21.95
2023-02-14T08:30:09.444Z,25.75
2023-02-14T08:32:36.084Z,20.80
2023-02-14T08:35:02.593Z,22.65
2023-02-14T08:37:29.060Z,25.52
2023-02-14T08:39:55.389Z,28.63
2023-02-14T08:42:21.858Z,27.23
2023-02-14T08:44:48.496Z,27.58
2023-02-14T08:47:14.872Z,25.70
2023-02-14T08:49:41.281Z,22.05
2023-02-14T08:52:07.642Z,28.13
2023-02-14T08:54:34.148Z,27.00
2023-02-14T08:57:01.174Z,24.02
2023-02-14T08:59:27.556Z,25.88
2023-02-14T09:01:53.958Z,27.05
2023-02-14T09:04:20.387Z,27.20
2023-02-14T09:06:46.820Z,24.35
2023-02-14T09:09:13.174Z,25.70
2023-02-14T09:11:39.568Z,23.92
2023-02-14T09:14:05.966Z,24.45
2023-02-14T09:16:32.526Z,26.77
2023-02-14T09:18:58.947Z,24.25
2023-02-14T09:21:27.516Z,21.80
2023-02-14T09:23:54.634Z,28.10
2023-02-14T09:26:21.209Z,26.98
2023-02-14T09:28:48.166Z,27.73
2023-02-14T09:31:17.255Z,22.80
2023-02-14T09:34:03.367Z,25.77
2023-02-14T09:36:48.249Z,24.65
2023-02-14T09:39:14.728Z,26.70
2023-02-14T09:41:59.352Z,27.23
2023-02-14T09:44:42.087Z,26.88
2023-02-14T09:47:23.724Z,28.48
2023-02-14T09:49:53.052Z,29.13
2023-02-14T09:52:25.524Z,29.08
2023-02-14T09:54:57.704Z,28.15
2023-02-14T09:57:53.615Z,25.42
2023-02-14T10:00:33.188Z,27.85
2023-02-14T10:03:31.005Z,30.63
2023-02-14T10:06:06.139Z,29.38
2023-02-14T10:08:55.160Z,28.95
2023-02-14T10:11:24.754Z,35.20
2023-02-14T10:14:08.476Z,32.55
2023-02-14T10:17:01.975Z,31.30
2023-02-14T10:22:19.443Z,31.83
2023-02-14T10:25:01.618Z,29.15
2023-02-14T10:27:42.109Z,24.75
2023-02-14T10:30:25.041Z,30.15
2023-02-14T10:33:13.455Z,29.08
2023-02-14T10:35:52.318Z,27.25
2023-02-14T10:38:47.989Z,27.52
2023-02-14T10:41:28.095Z,32.17
2023-02-14T10:44:18.833Z,30.88
2023-02-14T10:47:04.410Z,30.70
2023-02-14T10:49:57.956Z,29.83
2023-02-14T10:52:29.245Z,27.50
2023-02-14T10:54:58.761Z,28.67
2023-02-14T10:57:32.033Z,31.45
2023-02-14T11:00:02.131Z,31.45
2023-02-14T11:02:39.823Z,29.95
2023-02-14T11:05:07.653Z,31.30
2023-02-14T11:07:34.261Z,30.75
2023-02-14T11:10:01.606Z,29.55
2023-02-14T11:12:34.987Z,32.97
2023-02-14T11:15:19.973Z,29.48
2023-02-14T11:17:46.747Z,32.38
2023-02-14T11:20:19.840Z,31.75
2023-02-14T11:22:46.622Z,33.22
2023-02-14T11:25:26.660Z,29.33
2023-02-14T11:28:02.003Z,35.28
2023-02-14T11:30:35.129Z,34.40
2023-02-14T11:33:04.110Z,29.60
2023-02-14T11:35:36.943Z,35.08
2023-02-14T11:38:30.460Z,31.02
2023-02-14T11:40:59.031Z,31.52
2023-02-14T11:43:34.596Z,35.75
2023-02-14T11:46:20.055Z,36.40
2023-02-14T11:48:56.771Z,36.47
2023-02-14T11:51:33.946Z,31.80
2023-02-14T11:54:04.856Z,36.80
2023-02-14T11:57:07.307Z,35.80
2023-02-14T11:59:40.596Z,36.25
2023-02-14T12:02:28.636Z,38.08
2023-02-14T12:05:05.254Z,30.33
2023-02-14T12:07:36.471Z,35.35
2023-02-14T12:10:18.280Z,34.15
2023-02-14T12:12:55.602Z,32.63
2023-02-14T12:15:27.363Z,34.45
2023-02-14T12:18:09.160Z,35.30
2023-02-14T12:20:44.056Z,31.98
2023-02-14T12:23:18.143Z,40.75
2023-02-14T12:25:52.660Z,35.45
2023-02-14T12:28:26.300Z,33.92
2023-02-14T12:30:52.800Z,37.10
2023-02-14T12:33:21.631Z,36.03
2023-02-14T12:36:06.872Z,35.50
2023-02-14T12:38:50.262Z,32.92
2023-02-14T12:41:33.981Z,38.25
2023-02-14T12:44:12.637Z,35.88
2023-02-14T12:46:51.678Z,38.78
2023-02-14T12:49:39.560Z,37.92
2023-02-14T12:52:18.171Z,36.40
2023-02-14T12:54:52.676Z,34.88
2023-02-14T12:57:51.675Z,37.92
2023-02-14T13:00:21.171Z,38.13
2023-02-14T13:03:24.848Z,41.13
2023-02-14T13:08:45.606Z,37.17
2023-02-14T13:11:42.609Z,40.28
2023-02-14T13:14:14.645Z,39.03
2023-02-14T13:16:50.651Z,38.67
2023-02-14T13:19:50.413Z,38.15
2023-02-14T13:22:21.741Z,42.47
2023-02-14T13:24:53.151Z,38.28
2023-02-14T13:27:24.347Z,34.42
2023-02-14T13:30:01.868Z,38.80
2023-02-14T13:32:39.159Z,34.50
2023-02-14T13:35:07.690Z,37.42
2023-02-14T13:37:36.033Z,32.85
2023-02-14T13:40:15.797Z,33.50
2023-02-14T13:42:48.472Z,37.30
2023-02-14T13:45:30.543Z,36.50
2023-02-14T13:48:13.584Z,34.37
2023-02-14T13:50:51.311Z,31.45
2023-02-14T13:53:47.282Z,31.95
2023-02-14T13:56:16.559Z,30.75
2023-02-14T13:58:47.884Z,31.30
2023-02-14T14:01:34.714Z,29.88
2023-02-14T14:04:33.419Z,39.38
2023-02-14T14:07:02.797Z,35.80
2023-02-14T14:09:44.738Z,36.45
2023-02-14T14:12:23.120Z,31.60
2023-02-14T14:15:10.746Z,32.03
2023-02-14T14:18:14.817Z,32.30
2023-02-14T14:20:45.361Z,33.10
2023-02-14T14:23:29.645Z,35.83
2023-02-14T14:25:56.180Z,34.95
2023-02-14T14:28:25.727Z,39.85
2023-02-14T14:30:52.372Z,31.95
2023-02-14T14:33:32.587Z,33.72
2023-02-14T14:36:07.817Z,32.60
2023-02-14T14:38:45.481Z,34.90
2023-02-14T14:41:11.975Z,31.65
2023-02-14T14:43:40.358Z,34.35
2023-02-14T14:46:13.013Z,35.47
2023-02-14T14:48:51.360Z,36.22
2023-02-14T14:51:22.655Z,35.33
2023-02-14T14:54:05.849Z,33.53
2023-02-14T14:59:28.408Z,35.83
2023-02-14T15:01:55.262Z,35.35
2023-02-14T15:04:35.513Z,33.75
2023-02-14T15:07:37.712Z,32.35
2023-02-14T15:10:21.312Z,33.33
2023-02-14T15:13:06.202Z,33.50
2023-02-14T15:15:32.661Z,36.22
2023-02-14T15:17:59.108Z,36.25
2023-02-14T15:20:26.296Z,33.85
2023-02-14T15:22:53.361Z,40.75
2023-02-14T15:25:27.332Z,39.30
2023-02-14T15:27:53.970Z,37.20
2023-02-14T15:30:20.640Z,37.35
2023-02-14T15:32:49.326Z,37.83
2023-02-14T15:35:17.988Z,39.13
2023-02-14T15:37:45.737Z,39.05
2023-02-14T15:40:22.625Z,37.83
2023-02-14T15:42:53.070Z,38.58
2023-02-14T15:45:25.960Z,37.83
2023-02-14T15:47:55.220Z,38.70
2023-02-14T15:50:30.217Z,35.78
2023-02-14T15:53:04.665Z,38.50
2023-02-14T15:55:32.434Z,39.20
2023-02-14T15:58:05.769Z,42.15
2023-02-14T16:00:32.887Z,36.70
2023-02-14T16:03:07.172Z,41.35
2023-02-14T16:05:33.635Z,38.05
2023-02-14T16:08:22.537Z,37.00
2023-02-14T16:10:59.594Z,40.00
2023-02-14T16:13:33.020Z,38.33
2023-02-14T16:16:01.068Z,37.03
2023-02-14T16:18:41.369Z,37.13
2023-02-14T16:21:24.677Z,36.88
2023-02-14T16:24:10.884Z,35.90
2023-02-14T16:26:42.335Z,39.65
2023-02-14T16:29:14.678Z,35.03
2023-02-14T16:32:14.240Z,32.92
2023-02-14T16:34:35.504Z,39.25
2023-02-14T16:37:18.978Z,38.70
2023-02-14T16:39:45.830Z,42.97
2023-02-14T16:42:17.430Z,41.25
2023-02-14T16:44:44.741Z,48.05
2023-02-14T16:47:15.653Z,45.97
2023-02-14T16:49:42.057Z,45.08
2023-02-14T16:52:15.279Z,43.50
2023-02-14T16:54:42.090Z,44.13
2023-02-14T16:57:17.612Z,44.30
2023-02-14T16:59:44.179Z,40.38
2023-02-14T17:02:10.638Z,40.40
2023-02-14T17:04:37.112Z,45.28
2023-02-14T17:07:05.805Z,46.47
2023-02-14T17:09:38.757Z,42.35
2023-02-14T17:14:38.655Z,45.37
2023-02-14T17:17:05.160Z,43.55
2023-02-14T17:19:33.489Z,46.47
2023-02-14T17:22:00.336Z,46.03
2023-02-14T17:24:26.898Z,42.92
2023-02-14T17:26:53.261Z,41.22
2023-02-14T17:29:19.628Z,37.90
2023-02-14T17:31:46.118Z,39.15
2023-02-14T17:34:12.526Z,38.28
2023-02-14T17:36:38.908Z,40.28
2023-02-14T17:39:06.116Z,44.42
2023-02-14T17:41:32.544Z,38.95
2023-02-14T17:44:01.993Z,40.17
2023-02-14T17:46:30.470Z,42.13
2023-02-14T17:48:57.461Z,48.08
2023-02-14T17:51:24.628Z,50.25
2023-02-14T17:53:51.391Z,48.53
2023-02-14T17:56:21.105Z,47.67
2023-02-14T17:58:49.140Z,42.25
2023-02-14T18:01:17.751Z,43.05
2023-02-14T18:03:44.214Z,46.80
2023-02-14T18:06:11.853Z,41.65
2023-02-14T18:08:41.783Z,43.63
2023-02-14T18:11:10.680Z,42.75
2023-02-14T18:13:37.983Z,38.75
2023-02-14T18:16:07.808Z,36.70
2023-02-14T18:18:34.292Z,42.40
2023-02-14T18:21:03.062Z,45.85
2023-02-14T18:23:33.204Z,41.78
2023-02-14T18:26:06.795Z,41.22
2023-02-14T18:28:34.951Z,44.58
2023-02-14T18:31:13.640Z,39.25
2023-02-14T18:33:41.011Z,41.80
2023-02-14T18:36:13.583Z,42.25
2023-02-14T18:38:41.871Z,47.65
2023-02-14T18:41:10.893Z,41.45
2023-02-14T18:43:38.645Z,38.38
2023-02-14T18:46:07.656Z,39.88
2023-02-14T18:48:35.399Z,39.30
2023-02-14T18:51:26.730Z,38.63
2023-02-14T18:53:54.513Z,39.13
2023-02-14T18:56:24.338Z,42.33
2023-02-14T18:58:55.940Z,40.33
2023-02-14T19:01:25.120Z,40.08
2023-02-14T19:03:52.955Z,39.22
2023-02-14T19:06:20.284Z,42.25
2023-02-14T19:08:46.686Z,45.15
2023-02-14T19:11:16.660Z,46.88
2023-02-14T19:13:49.906Z,46.80
2023-02-14T19:16:20.131Z,47.58
2023-02-14T19:18:47.215Z,51.50
2023-02-14T19:21:16.656Z,51.10
2023-02-14T19:23:43.878Z,48.88
2023-02-14T19:26:16.656Z,45.90
2023-02-14T19:28:44.256Z,44.30
2023-02-14T19:31:11.456Z,46.72
2023-02-14T19:33:40.421Z,41.88
2023-02-14T19:36:09.148Z,46.70
2023-02-14T19:38:35.787Z,42.65
2023-02-14T19:41:02.582Z,51.30
2023-02-14T19:43:29.162Z,43.40
2023-02-14T19:45:55.621Z,45.47
2023-02-14T19:48:22.113Z,42.55
2023-02-14T19:50:49.167Z,41.95
2023-02-14T19:53:15.646Z,44.92
2023-02-14T19:55:42.070Z,49.03
2023-02-14T19:58:08.480Z,49.63
2023-02-14T20:00:36.908Z,49.20
2023-02-14T20:03:03.803Z,50.00
2023-02-14T20:05:30.298Z,49.83
2023-02-14T20:07:56.832Z,54.10
2023-02-14T20:10:23.347Z,59.35
2023-02-14T20:12:49.861Z,62.92
2023-02-14T20:15:16.569Z,59.35
2023-02-14T20:17:43.033Z,54.10
2023-02-14T20:20:13.536Z,55.03
2023-02-14T20:22:40.812Z,56.08
2023-02-14T20:25:08.865Z,59.00
2023-02-14T20:27:36.004Z,55.05
2023-02-14T20:30:02.879Z,50.95
2023-02-14T20:32:29.336Z,51.85
2023-02-14T20:34:57.252Z,50.78
2023-02-14T20:37:24.514Z,77.22
2023-02-14T20:39:51.073Z,67.50
2023-02-14T20:42:17.558Z,51.78
2023-02-14T20:44:45.190Z,42.88
2023-02-14T20:47:11.785Z,42.97
2023-02-14T20:49:38.938Z,41.15
2023-02-14T20:52:05.828Z,39.92
2023-02-14T20:54:32.295Z,41.47
2023-02-14T20:56:58.729Z,46.95
2023-02-14T20:59:28.507Z,42.67
2023-02-14T21:01:56.701Z,43.22
2023-02-14T21:04:24.060Z,38.85
2023-02-14T21:06:50.524Z,45.58
2023-02-14T21:09:18.504Z,51.95
2023-02-14T21:11:44.962Z,54.92
2023-02-14T21:14:11.769Z,39.92
2023-02-14T21:16:38.277Z,41.03
2023-02-14T21:19:05.697Z,40.35
2023-02-14T21:21:36.811Z,40.33
2023-02-14T21:24:29.632Z,40.10
2023-02-14T21:26:56.751Z,44.60
2023-02-14T21:29:23.317Z,44.58
2023-02-14T21:31:49.833Z,40.00
2023-02-14T21:34:16.439Z,45.75
2023-02-14T21:36:42.945Z,43.60
2023-02-14T21:39:09.317Z,41.80
2023-02-14T21:41:36.427Z,46.20
2023-02-14T21:44:03.900Z,47.05
2023-02-14T21:46:33.214Z,47.88
2023-02-14T21:49:19.210Z,52.30
2023-02-14T21:51:46.586Z,51.67
2023-02-14T21:54:13.534Z,46.17
2023-02-14T21:56:41.305Z,48.35
2023-02-14T21:59:09.535Z,49.33
2023-02-14T22:01:38.462Z,49.00
2023-02-14T22:04:08.823Z,54.83
2023-02-14T22:06:39.293Z,46.95
2023-02-14T22:09:06.824Z,45.55
2023-02-14T22:11:34.599Z,49.72
2023-02-14T22:14:01.429Z,47.97
2023-02-14T22:16:28.055Z,46.03
2023-02-14T22:18:54.553Z,43.05
2023-02-14T22:21:24.093Z,41.92
2023-02-14T22:23:50.819Z,44.03
2023-02-14T22:26:22.911Z,42.58
2023-02-14T22:28:50.916Z,45.13
2023-02-14T22:31:18.812Z,46.47
2023-02-14T22:33:46.727Z,45.90
2023-02-14T22:36:13.156Z,44.83
2023-02-14T22:38:39.949Z,49.20
2023-02-14T22:41:06.304Z,46.83
2023-02-14T22:43:33.166Z,45.58
2023-02-14T22:46:09.169Z,44.15
2023-02-14T22:48:37.050Z,46.58
2023-02-14T22:51:25.169Z,39.85
2023-02-14T22:53:54.436Z,43.05
2023-02-14T22:56:29.315Z,44.45
2023-02-14T22:58:57.659Z,44.67
2023-02-14T23:01:24.847Z,43.60
2023-02-14T23:03:56.470Z,43.80
2023-02-14T23:06:24.716Z,42.47
2023-02-14T23:08:52.059Z,47.42
2023-02-14T23:11:26.982Z,43.92
2023-02-14T23:14:12.883Z,45.15
2023-02-14T23:16:58.728Z,48.10
2023-02-14T23:19:48.742Z,45.13
2023-02-14T23:22:26.867Z,44.40
2023-02-14T23:24:57.097Z,40.83
2023-02-14T23:27:45.300Z,44.60
2023-02-14T23:30:17.596Z,40.38
2023-02-14T23:32:44.892Z,40.63
2023-02-14T23:35:11.808Z,44.45
2023-02-14T23:37:38.314Z,49.00
2023-02-14T23:40:06.580Z,53.55
2023-02-14T23:42:32.965Z,46.95
2023-02-14T23:45:19.287Z,48.47
2023-02-14T23:47:45.710Z,53.67
2023-02-14T23:50:12.110Z,49.80
2023-02-14T23:52:41.507Z,56.83
2023-02-14T23:55:08.740Z,58.40
2023-02-14T23:57:35.114Z,52.15
